Time;durP1;ratioP1;P1;durP2;ratioP2;P2;SDS_P1;SDS_P2;PMS_P1;PMS_P2;Temp;Humidity;BMP_temperature;BMP_pressure;BME280_temperature;BME280_humidity;BME280_pressure;Samples;Min_cycle;Max_cycle;Signal;HPM_P1;HPM_P2
2023/08/26 00:00:52;;;;;;;6.15;2.95;;;10.20;99.90;;;;;;4996970;28;20022;-89
2023/08/26 00:03:18;;;;;;;9.05;3.58;;;10.20;99.90;;;;;;4996913;28;20172;-91
2023/08/26 00:05:43;;;;;;;7.25;3.75;;;10.20;99.90;;;;;;4997089;28;20069;-90
2023/08/26 00:08:09;;;;;;;7.50;3.53;;;10.20;99.90;;;;;;4996839;28;20022;-89
2023/08/26 00:10:35;;;;;;;6.22;3.05;;;10.20;99.90;;;;;;4997044;28;20109;-90
2023/08/26 00:13:00;;;;;;;5.57;3.53;;;10.20;99.90;;;;;;4997076;28;20042;-90
2023/08/26 00:15:26;;;;;;;4.35;3.28;;;10.30;99.90;;;;;;4996327;28;20105;-89
2023/08/26 00:17:52;;;;;;;6.60;3.50;;;10.20;99.90;;;;;;4991844;28;20058;-90
2023/08/26 00:20:21;;;;;;;4.28;2.92;;;10.20;99.90;;;;;;4998228;28;20026;-90
2023/08/26 00:22:47;;;;;;;9.85;2.78;;;10.20;99.90;;;;;;5001966;28;20045;-89
2023/08/26 00:25:13;;;;;;;6.85;3.38;;;10.10;99.90;;;;;;5004143;28;20033;-91
2023/08/26 00:27:38;;;;;;;5.82;2.85;;;10.20;99.90;;;;;;5002116;28;20021;-90
2023/08/26 00:30:05;;;;;;;11.68;3.20;;;10.20;99.90;;;;;;4998843;28;20022;-90
2023/08/26 00:32:31;;;;;;;4.82;2.78;;;10.20;99.90;;;;;;5000257;28;20037;-90
2023/08/26 00:34:56;;;;;;;5.40;3.22;;;10.30;99.90;;;;;;4999600;28;20541;-90
2023/08/26 00:37:22;;;;;;;6.32;2.95;;;10.30;99.90;;;;;;4998834;28;20030;-90
2023/08/26 00:39:48;;;;;;;7.72;3.22;;;10.30;99.90;;;;;;4997738;28;20032;-89
2023/08/26 00:42:13;;;;;;;4.72;3.42;;;10.30;99.90;;;;;;4997528;28;20015;-90
2023/08/26 00:44:39;;;;;;;6.15;3.10;;;10.30;99.90;;;;;;4996607;28;20081;-89
2023/08/26 00:47:05;;;;;;;6.05;2.67;;;10.20;99.90;;;;;;4995311;28;20026;-89
2023/08/26 00:49:31;;;;;;;7.63;2.80;;;10.20;99.90;;;;;;4996524;28;20022;-89
2023/08/26 00:51:57;;;;;;;6.53;3.28;;;10.20;99.90;;;;;;4996206;28;20038;-90
2023/08/26 00:54:23;;;;;;;3.70;2.75;;;10.20;99.90;;;;;;5004329;28;20021;-89
2023/08/26 00:56:49;;;;;;;5.35;3.15;;;10.20;99.90;;;;;;5006981;28;20029;-89
2023/08/26 00:59:14;;;;;;;5.93;3.22;;;10.20;99.90;;;;;;5006022;28;20018;-89
2023/08/26 01:01:41;;;;;;;4.45;2.85;;;10.20;99.90;;;;;;5005368;28;20058;-89
2023/08/26 01:04:07;;;;;;;5.72;3.33;;;10.20;99.90;;;;;;5005043;28;20100;-90
2023/08/26 01:06:33;;;;;;;7.03;3.50;;;10.20;99.90;;;;;;5007525;28;20113;-89
2023/08/26 01:08:59;;;;;;;9.13;4.35;;;10.20;99.90;;;;;;5004829;28;20030;-90
2023/08/26 01:11:35;;;;;;;9.68;3.97;;;10.20;99.90;;;;;;5007552;28;20020;-89
2023/08/26 01:14:33;;;;;;;8.40;4.28;;;10.20;99.90;;;;;;5005231;28;20124;-90
2023/08/26 01:17:01;;;;;;;8.43;4.97;;;10.30;99.90;;;;;;4981863;28;20519;-90
2023/08/26 01:19:38;;;;;;;5.72;4.13;;;10.30;99.90;;;;;;5006334;28;20037;-89
2023/08/26 01:22:09;;;;;;;7.47;4.40;;;10.30;99.90;;;;;;5003738;28;20037;-90
2023/08/26 01:24:35;;;;;;;;;;;10.40;99.90;;;;;;5004411;28;20026;-89
2023/08/26 01:27:01;;;;;;;7.63;4.32;;;10.30;99.90;;;;;;5006137;28;19932;-89
2023/08/26 01:29:28;;;;;;;7.07;3.70;;;10.30;99.90;;;;;;5003643;28;20465;-91
2023/08/26 01:31:59;;;;;;;6.40;4.20;;;10.30;99.90;;;;;;5006326;28;20040;-90
2023/08/26 01:34:30;;;;;;;11.38;6.80;;;10.20;99.90;;;;;;5006628;28;20483;-90
2023/08/26 01:36:58;;;;;;;16.30;7.05;;;10.20;99.90;;;;;;5007341;28;20026;-89
2023/08/26 01:39:25;;;;;;;10.80;6.50;;;10.20;99.90;;;;;;5006667;28;20029;-91
2023/08/26 01:41:51;;;;;;;14.60;8.32;;;10.30;99.90;;;;;;5006418;28;20051;-90
2023/08/26 01:44:18;;;;;;;10.43;7.00;;;10.30;99.90;;;;;;5005439;28;20527;-89
2023/08/26 01:46:44;;;;;;;11.20;6.80;;;10.30;99.90;;;;;;5004751;28;20049;-89
2023/08/26 01:49:10;;;;;;;11.93;7.10;;;10.30;99.90;;;;;;5006488;28;20075;-90
2023/08/26 01:51:36;;;;;;;18.00;8.25;;;10.30;99.90;;;;;;5003430;28;20025;-90
2023/08/26 01:54:03;;;;;;;10.82;6.75;;;10.20;99.90;;;;;;5006258;28;20124;-90
2023/08/26 01:56:29;;;;;;;14.38;6.88;;;10.20;99.90;;;;;;5006385;28;20596;-91
2023/08/26 01:58:54;;;;;;;11.32;7.50;;;10.30;99.90;;;;;;5007317;28;20053;-90
2023/08/26 02:01:20;;;;;;;14.18;8.45;;;10.30;99.90;;;;;;5010133;28;20056;-90
2023/08/26 02:03:46;;;;;;;14.95;8.15;;;10.30;99.90;;;;;;5010421;28;20490;-89
2023/08/26 02:06:11;;;;;;;14.10;8.30;;;10.30;99.90;;;;;;5009453;28;20014;-91
2023/08/26 02:08:37;;;;;;;11.68;8.05;;;10.30;99.90;;;;;;5008898;28;20025;-90
2023/08/26 02:11:02;;;;;;;12.27;8.15;;;10.30;99.90;;;;;;5008390;28;20022;-89
2023/08/26 02:13:28;;;;;;;12.88;7.68;;;10.40;99.90;;;;;;5010056;28;20084;-91
2023/08/26 02:15:55;;;;;;;14.52;8.05;;;10.40;99.90;;;;;;5008737;28;20026;-91
2023/08/26 02:18:21;;;;;;;13.13;7.65;;;10.40;99.90;;;;;;5007444;28;20026;-91
2023/08/26 02:20:48;;;;;;;15.27;8.07;;;10.50;99.90;;;;;;5007616;28;20075;-90
2023/08/26 02:23:14;;;;;;;12.52;8.15;;;10.50;99.90;;;;;;5011680;28;20091;-91
2023/08/26 02:25:41;;;;;;;10.45;4.60;;;10.60;99.90;;;;;;5007272;28;20121;-90
2023/08/26 02:28:07;;;;;;;11.40;5.63;;;10.60;99.90;;;;;;5012289;28;20060;-91
2023/08/26 02:30:33;;;;;;;11.10;7.53;;;10.50;99.90;;;;;;5008243;28;20026;-91
2023/08/26 02:32:59;;;;;;;10.93;6.45;;;10.50;99.90;;;;;;5008466;28;20037;-90
2023/08/26 02:35:25;;;;;;;10.68;6.63;;;10.50;99.90;;;;;;5009662;28;20348;-90
2023/08/26 02:37:50;;;;;;;11.20;6.32;;;10.50;99.90;;;;;;5009677;28;20025;-90
2023/08/26 02:40:18;;;;;;;11.43;6.65;;;10.50;99.90;;;;;;5006459;28;20384;-91
2023/08/26 02:42:43;;;;;;;13.18;6.55;;;10.50;99.90;;;;;;5008984;28;20041;-91
2023/08/26 02:45:09;;;;;;;7.63;5.95;;;10.50;99.90;;;;;;5006404;28;20044;-90
2023/08/26 02:47:35;;;;;;;24.67;7.80;;;10.50;99.90;;;;;;5008120;28;20050;-91
2023/08/26 02:50:02;;;;;;;8.23;5.85;;;10.50;99.90;;;;;;5007154;28;20022;-92
2023/08/26 02:52:27;;;;;;;8.43;6.05;;;10.50;99.90;;;;;;5008952;28;20052;-91
2023/08/26 02:54:53;;;;;;;9.05;5.45;;;10.50;99.90;;;;;;5006607;28;20018;-91
2023/08/26 02:57:19;;;;;;;11.32;5.88;;;10.40;99.90;;;;;;5006448;28;20029;-90
2023/08/26 02:59:45;;;;;;;9.90;6.35;;;10.40;99.90;;;;;;5006336;28;20471;-91
2023/08/26 03:02:11;;;;;;;7.85;5.95;;;10.40;99.90;;;;;;5008509;28;20116;-91
2023/08/26 03:04:36;;;;;;;9.07;5.95;;;10.40;99.90;;;;;;5006098;28;20048;-90
2023/08/26 03:07:02;;;;;;;6.85;5.25;;;10.30;99.90;;;;;;5008502;28;20022;-90
2023/08/26 03:09:29;;;;;;;14.02;6.63;;;10.30;99.90;;;;;;5006311;28;20057;-90
2023/08/26 03:11:58;;;;;;;11.23;6.00;;;10.30;99.90;;;;;;5009216;28;20480;-89
2023/08/26 03:14:24;;;;;;;8.88;5.82;;;10.30;99.90;;;;;;5009485;28;20030;-90
2023/08/26 03:16:50;;;;;;;11.40;6.85;;;10.20;99.90;;;;;;5008332;28;20371;-91
2023/08/26 03:19:16;;;;;;;9.32;5.50;;;10.20;99.90;;;;;;5008576;28;20466;-90
2023/08/26 03:21:41;;;;;;;11.68;5.03;;;10.20;99.90;;;;;;5008257;28;20067;-90
2023/08/26 03:24:07;;;;;;;11.50;5.70;;;10.30;99.90;;;;;;5006553;28;20079;-90
2023/08/26 03:26:32;;;;;;;9.90;5.40;;;10.20;99.90;;;;;;5008086;28;20025;-90
2023/08/26 03:28:58;;;;;;;7.22;4.85;;;10.20;99.90;;;;;;5007851;28;20083;-90
2023/08/26 03:31:24;;;;;;;9.38;4.95;;;10.20;99.90;;;;;;5006326;28;20063;-90
2023/08/26 03:33:49;;;;;;;12.10;4.57;;;10.20;99.90;;;;;;5008095;28;20497;-90
2023/08/26 03:36:15;;;;;;;7.57;4.82;;;10.20;99.90;;;;;;5007523;28;20028;-90
2023/08/26 03:38:41;;;;;;;6.75;4.57;;;10.10;99.90;;;;;;5006806;28;20481;-90
2023/08/26 03:41:06;;;;;;;5.22;4.13;;;10.00;99.90;;;;;;5006156;28;20029;-90
2023/08/26 03:43:33;;;;;;;7.30;4.20;;;10.00;99.90;;;;;;5010157;28;20029;-90
2023/08/26 03:46:00;;;;;;;6.20;4.28;;;9.90;99.90;;;;;;5015396;28;20048;-91
2023/08/26 03:48:26;;;;;;;12.70;5.38;;;9.80;99.90;;;;;;5015896;28;20045;-90
2023/08/26 03:50:52;;;;;;;7.90;4.57;;;9.80;99.90;;;;;;5019638;28;19997;-91
2023/08/26 03:53:18;;;;;;;6.35;4.43;;;9.80;99.90;;;;;;5013907;28;20038;-90
2023/08/26 03:55:45;;;;;;;7.68;4.15;;;9.70;99.90;;;;;;5008755;28;20394;-89
2023/08/26 03:58:11;;;;;;;9.75;3.97;;;9.70;99.90;;;;;;5010890;28;20014;-89
2023/08/26 04:00:40;;;;;;;8.00;4.40;;;9.60;99.90;;;;;;5007133;28;20022;-88
2023/08/26 04:03:06;;;;;;;6.82;4.72;;;9.60;99.90;;;;;;5008925;28;20067;-89
2023/08/26 04:05:32;;;;;;;7.47;4.55;;;9.60;99.90;;;;;;5006506;28;20022;-92
2023/08/26 04:08:00;;;;;;;7.57;4.20;;;9.60;99.90;;;;;;5006833;28;20109;-88
2023/08/26 04:10:26;;;;;;;6.57;4.38;;;9.50;99.90;;;;;;5005401;28;20045;-91
2023/08/26 04:12:51;;;;;;;7.38;4.20;;;9.50;99.90;;;;;;5005588;28;20092;-88
2023/08/26 04:15:17;;;;;;;5.82;4.57;;;9.50;99.90;;;;;;5002804;28;20030;-88
2023/08/26 04:17:43;;;;;;;13.43;4.43;;;9.50;99.90;;;;;;5005751;28;20025;-91
2023/08/26 04:20:11;;;;;;;9.60;4.50;;;9.50;99.90;;;;;;5004375;28;20085;-90
2023/08/26 04:22:37;;;;;;;7.90;4.65;;;9.50;99.90;;;;;;5004669;28;20094;-91
2023/08/26 04:25:04;;;;;;;8.45;4.10;;;9.60;99.90;;;;;;5007359;28;20029;-91
2023/08/26 04:27:32;;;;;;;9.45;4.53;;;9.60;99.90;;;;;;5000294;28;20021;-88
2023/08/26 04:29:58;;;;;;;8.48;3.80;;;9.60;99.90;;;;;;5005275;28;20053;-91
2023/08/26 04:32:24;;;;;;;9.25;4.60;;;9.60;99.90;;;;;;5004964;28;20504;-89
2023/08/26 04:34:50;;;;;;;6.25;4.28;;;9.60;99.90;;;;;;5005135;28;20029;-91
2023/08/26 04:37:15;;;;;;;9.05;4.65;;;9.60;99.90;;;;;;5006123;28;20041;-90
2023/08/26 04:39:41;;;;;;;10.05;4.15;;;9.60;99.90;;;;;;5004914;28;20487;-89
2023/08/26 04:42:07;;;;;;;7.10;4.40;;;9.70;99.90;;;;;;5005479;28;20022;-90
2023/08/26 04:44:33;;;;;;;6.18;4.13;;;9.70;99.90;;;;;;5013109;28;20025;-91
2023/08/26 04:46:58;;;;;;;6.28;4.38;;;9.60;99.90;;;;;;5012643;28;20033;-90
2023/08/26 04:49:24;;;;;;;6.95;4.28;;;9.60;99.90;;;;;;5011714;28;20064;-91
2023/08/26 04:51:52;;;;;;;6.22;3.92;;;9.60;99.90;;;;;;5012855;28;20075;-90
2023/08/26 04:54:17;;;;;;;6.75;4.78;;;9.60;99.90;;;;;;5012632;28;20463;-91
2023/08/26 04:56:43;;;;;;;7.63;4.30;;;9.60;99.90;;;;;;5009262;28;20017;-91
2023/08/26 04:59:09;;;;;;;5.90;4.13;;;9.50;99.90;;;;;;5001818;28;20037;-91
2023/08/26 05:01:34;;;;;;;6.90;4.22;;;9.60;99.90;;;;;;5004568;28;20025;-90
2023/08/26 05:04:00;;;;;;;7.60;4.28;;;9.50;99.90;;;;;;5024278;28;20483;-90
2023/08/26 05:06:26;;;;;;;9.15;4.80;;;9.50;99.90;;;;;;5022269;28;20025;-92
2023/08/26 05:08:52;;;;;;;8.93;4.30;;;9.50;99.90;;;;;;5005942;28;20026;-90
2023/08/26 05:11:17;;;;;;;13.88;4.85;;;9.50;99.90;;;;;;5009132;28;20025;-90
2023/08/26 05:13:43;;;;;;;8.35;4.50;;;9.50;99.90;;;;;;5006940;28;20041;-90
2023/08/26 05:16:09;;;;;;;6.45;4.30;;;9.50;99.90;;;;;;5004103;28;20053;-91
2023/08/26 05:18:34;;;;;;;9.07;5.68;;;9.50;99.90;;;;;;5005709;28;20076;-90
2023/08/26 05:21:00;;;;;;;7.32;4.70;;;9.50;99.90;;;;;;5005699;28;20117;-90
2023/08/26 05:23:26;;;;;;;9.50;5.40;;;9.50;99.90;;;;;;5006851;28;20049;-90
2023/08/26 05:25:52;;;;;;;9.15;5.30;;;9.50;99.90;;;;;;5005019;28;20029;-90
2023/08/26 05:28:17;;;;;;;11.57;6.88;;;9.60;99.90;;;;;;5005283;28;20467;-91
2023/08/26 05:30:43;;;;;;;12.10;6.95;;;9.60;99.90;;;;;;5004198;28;20476;-90
2023/08/26 05:33:08;;;;;;;11.07;7.05;;;9.70;99.90;;;;;;5013052;28;20065;-91
2023/08/26 05:35:34;;;;;;;12.88;7.65;;;9.80;99.90;;;;;;5012013;28;20018;-91
2023/08/26 05:38:00;;;;;;;15.27;7.82;;;9.80;99.90;;;;;;5010966;28;20048;-91
2023/08/26 05:40:29;;;;;;;11.77;7.38;;;9.90;99.90;;;;;;5008306;28;20464;-90
2023/08/26 05:42:57;;;;;;;15.68;8.90;;;10.00;99.90;;;;;;5009954;28;20103;-90
2023/08/26 05:45:24;;;;;;;12.80;8.68;;;10.10;99.90;;;;;;5009673;28;20038;-90
2023/08/26 05:47:50;;;;;;;15.30;9.57;;;10.10;99.90;;;;;;5005815;28;20026;-90
2023/08/26 05:50:16;;;;;;;12.05;8.70;;;10.20;99.90;;;;;;5010966;28;20018;-91
2023/08/26 05:52:41;;;;;;;20.90;8.65;;;10.30;99.90;;;;;;5008347;28;20036;-91
2023/08/26 05:55:09;;;;;;;14.30;8.45;;;10.40;99.90;;;;;;5009163;28;20025;-90
2023/08/26 05:57:35;;;;;;;14.57;8.63;;;10.40;99.90;;;;;;5009005;28;20018;-91
2023/08/26 06:00:01;;;;;;;12.15;7.50;;;10.50;99.90;;;;;;5008382;28;20112;-91
2023/08/26 06:02:26;;;;;;;8.20;5.80;;;10.50;99.90;;;;;;5010054;28;20528;-91
2023/08/26 06:04:52;;;;;;;9.50;6.15;;;10.50;99.90;;;;;;5008231;28;20022;-91
2023/08/26 06:07:18;;;;;;;12.45;6.95;;;10.50;99.90;;;;;;5010857;28;20025;-91
2023/08/26 06:09:44;;;;;;;11.80;6.78;;;10.60;99.90;;;;;;5007690;28;20099;-90
2023/08/26 06:12:09;;;;;;;9.98;7.05;;;10.60;99.90;;;;;;5005125;28;20041;-91
2023/08/26 06:14:35;;;;;;;9.75;7.47;;;10.70;99.90;;;;;;5008944;28;20017;-92
2023/08/26 06:17:00;;;;;;;11.57;7.18;;;10.70;99.90;;;;;;5004565;28;20030;-90
2023/08/26 06:19:26;;;;;;;13.07;8.05;;;10.80;99.90;;;;;;5015502;28;20056;-91
2023/08/26 06:21:52;;;;;;;11.02;7.55;;;10.90;99.90;;;;;;5016245;28;20048;-92
2023/08/26 06:24:18;;;;;;;13.23;8.00;;;10.90;99.90;;;;;;5009766;28;20112;-91
2023/08/26 06:26:44;;;;;;;12.77;8.27;;;11.00;99.90;;;;;;5013824;28;20018;-92
2023/08/26 06:29:13;;;;;;;20.33;9.57;;;11.00;99.90;;;;;;5013588;28;20028;-93
2023/08/26 06:31:39;;;;;;;11.10;7.30;;;11.10;99.90;;;;;;5014508;28;20361;-92
2023/08/26 06:34:04;;;;;;;8.55;6.45;;;11.10;99.90;;;;;;5008660;28;20041;-92
2023/08/26 06:36:30;;;;;;;9.20;5.97;;;11.10;99.90;;;;;;5009764;28;20025;-92
2023/08/26 06:38:55;;;;;;;13.55;6.60;;;11.20;99.90;;;;;;5007454;28;20048;-91
2023/08/26 06:41:21;;;;;;;13.63;6.95;;;11.10;99.90;;;;;;5007848;28;20390;-92
2023/08/26 06:43:47;;;;;;;8.63;6.70;;;11.10;99.90;;;;;;5010181;28;20022;-91
2023/08/26 06:46:13;;;;;;;13.35;6.90;;;11.10;99.90;;;;;;5010850;28;20045;-92
2023/08/26 06:48:39;;;;;;;10.77;6.60;;;11.10;99.90;;;;;;5004560;28;20121;-92
2023/08/26 06:51:05;;;;;;;11.98;6.95;;;11.10;99.90;;;;;;5009857;28;20459;-92
2023/08/26 06:53:30;;;;;;;12.07;7.53;;;11.10;99.90;;;;;;5007971;28;20044;-92
2023/08/26 06:55:56;;;;;;;10.32;6.75;;;11.20;99.90;;;;;;5010839;28;20142;-92
2023/08/26 06:58:23;;;;;;;11.90;6.35;;;11.30;99.90;;;;;;5001648;28;20046;-92
2023/08/26 07:00:49;;;;;;;10.75;7.20;;;11.40;99.90;;;;;;5006435;28;20048;-91
2023/08/26 07:03:15;;;;;;;9.60;6.53;;;11.50;99.90;;;;;;5012803;28;20022;-91
2023/08/26 07:05:45;;;;;;;9.55;6.85;;;11.60;99.90;;;;;;5007394;28;20064;-92
2023/08/26 07:08:12;;;;;;;12.63;6.40;;;11.70;99.90;;;;;;4998291;28;20027;-93
2023/08/26 07:10:38;;;;;;;9.52;6.47;;;11.80;99.90;;;;;;5008216;28;20486;-91
2023/08/26 07:13:03;;;;;;;10.00;5.97;;;11.90;99.90;;;;;;5006962;28;20049;-92
2023/08/26 07:15:29;;;;;;;9.65;6.15;;;12.00;99.90;;;;;;5015518;28;20084;-92
2023/08/26 07:17:55;;;;;;;12.27;6.97;;;12.00;99.90;;;;;;5012939;28;20080;-92
2023/08/26 07:20:21;;;;;;;10.45;5.75;;;12.10;99.90;;;;;;5009824;28;20582;-93
2023/08/26 07:22:46;;;;;;;9.85;6.30;;;12.20;99.90;;;;;;5008359;28;20034;-91
2023/08/26 07:25:12;;;;;;;8.18;5.50;;;12.20;99.90;;;;;;5006703;28;20093;-92
2023/08/26 07:27:39;;;;;;;8.23;5.03;;;12.30;99.90;;;;;;5012469;28;20075;-93
2023/08/26 07:30:05;;;;;;;12.05;4.65;;;12.40;99.90;;;;;;5010653;28;21545;-93
2023/08/26 07:32:31;;;;;;;7.53;4.25;;;12.50;99.90;;;;;;4998286;28;20124;-92
2023/08/26 07:34:57;;;;;;;7.18;4.43;;;12.50;99.90;;;;;;5003832;28;20104;-93
2023/08/26 07:37:23;;;;;;;8.38;4.47;;;12.50;99.90;;;;;;5004195;28;20029;-91
2023/08/26 07:39:49;;;;;;;9.65;4.72;;;12.60;99.90;;;;;;5006293;28;20021;-92
2023/08/26 07:42:16;;;;;;;5.55;4.20;;;12.60;99.90;;;;;;5006132;28;20068;-93
2023/08/26 07:44:41;;;;;;;7.57;3.80;;;12.70;99.90;;;;;;5012303;28;20564;-94
2023/08/26 07:47:07;;;;;;;6.07;3.90;;;12.70;99.90;;;;;;5006536;28;20030;-92
2023/08/26 07:49:33;;;;;;;7.22;3.95;;;12.70;99.90;;;;;;5000483;28;20025;-92
2023/08/26 07:51:58;;;;;;;5.07;3.10;;;12.70;99.90;;;;;;5004677;28;20633;-94
2023/08/26 07:54:24;;;;;;;10.82;3.88;;;12.80;99.90;;;;;;5006379;28;20076;-91
2023/08/26 07:56:50;;;;;;;6.00;3.30;;;12.80;99.90;;;;;;4997128;28;20048;-92
2023/08/26 07:59:15;;;;;;;4.97;3.53;;;12.90;99.90;;;;;;5008154;28;20517;-93
2023/08/26 08:01:41;;;;;;;4.20;3.22;;;12.90;99.90;;;;;;5003633;28;20543;-93
2023/08/26 08:04:07;;;;;;;5.80;2.78;;;12.90;99.90;;;;;;5005780;28;20076;-90
2023/08/26 08:06:32;;;;;;;6.32;2.38;;;13.00;99.90;;;;;;5006671;28;20018;-92
2023/08/26 08:08:58;;;;;;;9.10;3.05;;;13.00;99.90;;;;;;5009405;28;20026;-92
2023/08/26 08:11:24;;;;;;;7.97;2.70;;;13.00;99.90;;;;;;5008689;28;20045;-92
2023/08/26 08:13:50;;;;;;;5.25;2.35;;;13.10;99.90;;;;;;5004958;28;20033;-91
2023/08/26 08:16:16;;;;;;;5.85;2.45;;;13.10;99.90;;;;;;5008062;28;20395;-93
2023/08/26 08:18:41;;;;;;;3.40;2.08;;;13.10;99.90;;;;;;5005754;28;20025;-92
2023/08/26 08:21:08;;;;;;;3.22;1.90;;;13.20;99.90;;;;;;5005633;28;20523;-91
2023/08/26 08:23:35;;;;;;;4.00;2.00;;;13.10;99.90;;;;;;5006677;28;20109;-92
2023/08/26 08:26:01;;;;;;;7.80;1.92;;;13.20;99.90;;;;;;5000267;28;20037;-92
2023/08/26 08:28:26;;;;;;;7.07;2.15;;;13.20;99.90;;;;;;4998959;28;20066;-91
2023/08/26 08:30:52;;;;;;;3.63;2.10;;;13.20;99.90;;;;;;4996316;28;20026;-92
2023/08/26 08:33:18;;;;;;;5.15;2.42;;;13.30;99.90;;;;;;4995113;28;20034;-91
2023/08/26 08:35:43;;;;;;;5.60;2.63;;;13.30;99.90;;;;;;4995497;28;20493;-91
2023/08/26 08:38:09;;;;;;;5.30;2.85;;;13.40;99.90;;;;;;4996569;28;20034;-92
2023/08/26 08:40:37;;;;;;;6.18;2.92;;;13.40;99.90;;;;;;4998528;28;20506;-93
2023/08/26 08:43:06;;;;;;;8.93;3.03;;;13.50;99.90;;;;;;5004403;28;20029;-91
2023/08/26 08:45:34;;;;;;;6.63;2.97;;;13.60;99.90;;;;;;4996225;28;20052;-92
2023/08/26 08:48:00;;;;;;;4.63;2.58;;;13.70;99.90;;;;;;5014501;28;20026;-91
2023/08/26 08:50:26;;;;;;;3.42;2.70;;;13.70;99.90;;;;;;4995933;28;20026;-92
2023/08/26 08:52:55;;;;;;;5.88;2.92;;;13.80;99.90;;;;;;4996119;28;20038;-92
2023/08/26 08:55:21;;;;;;;8.00;3.25;;;13.90;99.90;;;;;;4997300;28;20482;-93
2023/08/26 08:57:50;;;;;;;5.30;2.78;;;14.00;99.90;;;;;;4998323;28;20026;-92
2023/08/26 09:00:18;;;;;;;3.75;2.53;;;14.00;99.90;;;;;;4996201;28;20022;-92
2023/08/26 09:02:46;;;;;;;7.20;2.30;;;14.10;99.90;;;;;;4996238;28;20025;-91
2023/08/26 09:05:12;;;;;;;4.90;2.42;;;14.20;99.90;;;;;;4996951;28;20022;-91
2023/08/26 09:07:41;;;;;;;3.13;2.22;;;14.30;99.90;;;;;;4996238;28;20133;-91
2023/08/26 09:10:12;;;;;;;2.72;2.53;;;14.40;99.90;;;;;;4996904;28;20109;-90
2023/08/26 09:12:39;;;;;;;3.67;2.47;;;14.50;99.90;;;;;;4996728;28;20042;-90
2023/08/26 09:15:05;;;;;;;2.45;2.25;;;14.70;99.90;;;;;;4997163;28;20022;-90
2023/08/26 09:17:35;;;;;;;3.75;2.22;;;14.90;99.90;;;;;;4996362;28;20480;-91
2023/08/26 09:20:02;;;;;;;3.30;2.00;;;15.00;99.90;;;;;;4995584;28;20077;-90
2023/08/26 09:22:29;;;;;;;3.03;2.35;;;15.00;99.90;;;;;;4995999;28;20537;-90
2023/08/26 09:25:02;;;;;;;3.42;2.83;;;15.10;99.90;;;;;;4996116;28;20029;-91
2023/08/26 09:27:28;;;;;;;5.60;4.03;;;15.00;99.90;;;;;;4996427;28;20662;-90
2023/08/26 09:29:54;;;;;;;3.95;3.35;;;15.00;99.90;;;;;;4995715;28;20022;-90
2023/08/26 09:32:33;;;;;;;10.45;4.35;;;15.00;99.90;;;;;;4996402;28;20513;-89
2023/08/26 09:35:13;;;;;;;4.72;4.20;;;15.00;99.90;;;;;;4995511;28;20137;-90
2023/08/26 09:37:41;;;;;;;4.50;3.67;;;15.10;99.90;;;;;;4995790;28;20379;-90
2023/08/26 09:40:07;;;;;;;7.45;4.13;;;15.20;99.90;;;;;;4996279;28;20026;-90
2023/08/26 09:42:34;;;;;;;4.65;3.95;;;15.30;99.90;;;;;;4995879;28;20084;-89
2023/08/26 09:45:00;;;;;;;6.78;3.90;;;15.40;99.90;;;;;;4995566;28;20045;-89
2023/08/26 09:47:32;;;;;;;4.97;4.03;;;15.50;99.90;;;;;;4995395;28;20044;-89
2023/08/26 09:49:58;;;;;;;5.53;3.28;;;15.70;99.90;;;;;;4995283;28;20029;-89
2023/08/26 09:52:24;;;;;;;3.30;3.00;;;15.90;99.90;;;;;;4995333;28;20487;-90
2023/08/26 09:54:51;;;;;;;6.72;3.17;;;16.00;99.90;;;;;;4995460;28;20097;-90
2023/08/26 09:57:17;;;;;;;4.32;2.60;;;16.10;99.90;;;;;;4993012;28;20105;-89
2023/08/26 09:59:43;;;;;;;3.90;2.33;;;16.10;99.90;;;;;;4995967;28;20060;-91
2023/08/26 10:02:30;;;;;;;3.15;2.00;;;16.10;99.90;;;;;;4995390;28;20033;-91
2023/08/26 10:04:59;;;;;;;4.38;1.80;;;16.00;99.90;;;;;;5002554;28;20154;-91
2023/08/26 10:07:27;;;;;;;4.30;1.90;;;16.00;99.90;;;;;;4995288;28;20026;-90
2023/08/26 10:10:04;;;;;;;5.47;2.00;;;15.90;99.90;;;;;;4995554;28;20026;-90
2023/08/26 10:12:43;;;;;;;6.30;2.10;;;15.90;99.90;;;;;;5011438;28;20057;-89
2023/08/26 10:15:14;;;;;;;4.53;2.38;;;15.90;99.90;;;;;;4996123;28;20057;-91
2023/08/26 10:17:48;;;;;;;;;;;15.90;99.90;;;;;;4997593;28;20511;-92
2023/08/26 10:20:14;;;;;;;4.35;2.50;;;15.90;99.90;;;;;;4999480;28;19910;-91
2023/08/26 10:22:40;;;;;;;5.57;2.80;;;15.80;99.90;;;;;;4999560;28;20025;-90
2023/08/26 10:25:08;;;;;;;5.25;2.92;;;15.80;99.90;;;;;;4999846;28;20388;-91
2023/08/26 10:27:35;;;;;;;6.15;3.13;;;15.90;99.90;;;;;;5007718;28;20034;-90
2023/08/26 10:30:04;;;;;;;4.60;3.20;;;15.90;99.90;;;;;;5010111;28;20122;-90
2023/08/26 10:32:29;;;;;;;4.70;2.90;;;15.90;99.90;;;;;;5008026;28;20041;-91
2023/08/26 10:34:59;;;;;;;5.90;3.35;;;15.90;99.90;;;;;;5006222;28;20029;-90
2023/08/26 10:37:26;;;;;;;5.93;4.23;;;15.90;99.90;;;;;;5003000;28;20022;-91
2023/08/26 10:39:52;;;;;;;6.00;3.95;;;16.10;99.90;;;;;;5000333;28;20387;-90
2023/08/26 10:42:19;;;;;;;5.75;4.50;;;16.40;99.90;;;;;;5001047;28;20030;-91
2023/08/26 10:44:58;;;;;;;5.60;3.85;;;16.70;99.90;;;;;;5000099;28;20057;-90
2023/08/26 10:47:35;;;;;;;6.55;3.53;;;17.10;99.90;;;;;;5000014;28;20045;-91
2023/08/26 10:50:17;;;;;;;5.32;3.78;;;17.50;99.90;;;;;;4999356;28;20498;-90
2023/08/26 10:52:43;;;;;;;5.95;3.20;;;18.10;99.90;;;;;;4999228;28;20054;-91
2023/08/26 10:55:19;;;;;;;5.78;3.60;;;18.50;99.90;;;;;;5016650;28;20394;-90
2023/08/26 10:58:06;;;;;;;6.65;3.65;;;19.00;99.90;;;;;;4998872;28;20025;-90
2023/08/26 11:00:32;;;;;;;5.97;2.97;;;19.50;99.90;;;;;;4999261;28;20033;-90
2023/08/26 11:02:59;;;;;;;5.70;3.40;;;19.90;99.90;;;;;;4999950;28;20029;-90
2023/08/26 11:05:24;;;;;;;3.65;2.83;;;20.20;99.90;;;;;;5001501;28;20029;-89
2023/08/26 11:07:50;;;;;;;4.35;2.95;;;20.50;99.90;;;;;;5002471;28;20034;-90
2023/08/26 11:10:39;;;;;;;3.45;2.72;;;20.60;99.90;;;;;;5001766;28;20032;-90
2023/08/26 11:13:05;;;;;;;5.13;2.78;;;20.50;97.90;;;;;;5008759;28;20492;-90
2023/08/26 11:15:42;;;;;;;3.08;2.50;;;20.30;96.90;;;;;;5007585;28;20040;-88
2023/08/26 11:18:09;;;;;;;6.40;3.20;;;20.00;96.60;;;;;;5003687;28;20033;-89
2023/08/26 11:20:35;;;;;;;4.35;2.50;;;19.80;96.60;;;;;;5000678;28;20030;-90
2023/08/26 11:23:05;;;;;;;4.00;2.80;;;19.60;96.70;;;;;;5000456;28;20030;-89
2023/08/26 11:25:32;;;;;;;4.80;2.60;;;19.30;96.10;;;;;;4998703;28;20291;-89
2023/08/26 11:28:07;;;;;;;3.63;2.53;;;19.30;96.20;;;;;;4996700;28;20037;-90
2023/08/26 11:30:43;;;;;;;3.33;2.17;;;19.40;96.00;;;;;;4998599;28;20026;-90
2023/08/26 11:33:16;;;;;;;2.95;2.40;;;19.40;94.80;;;;;;4999009;28;20099;-90
2023/08/26 11:35:44;;;;;;;4.68;3.55;;;19.30;94.10;;;;;;4999693;28;20032;-89
2023/08/26 11:38:10;;;;;;;2.88;2.00;;;19.30;93.90;;;;;;4997556;28;20033;-88
2023/08/26 11:40:36;;;;;;;2.80;1.90;;;19.30;93.60;;;;;;4998533;28;20022;-89
2023/08/26 11:43:09;;;;;;;4.68;2.00;;;19.30;93.50;;;;;;4998729;28;20029;-90
2023/08/26 11:45:36;;;;;;;2.85;2.00;;;19.40;93.30;;;;;;4997269;28;20149;-90
2023/08/26 11:48:03;;;;;;;2.67;2.20;;;19.60;93.10;;;;;;4995679;28;20027;-90
2023/08/26 11:50:29;;;;;;;2.30;2.10;;;19.80;92.50;;;;;;4994956;28;20038;-90
2023/08/26 11:52:55;;;;;;;6.15;2.35;;;19.90;91.80;;;;;;4995182;28;20031;-91
2023/08/26 11:55:22;;;;;;;1.55;1.45;;;19.90;91.40;;;;;;4993909;28;20022;-89
2023/08/26 11:57:52;;;;;;;1.70;1.55;;;19.90;91.10;;;;;;4994946;28;20030;-89
2023/08/26 12:00:19;;;;;;;1.98;1.58;;;19.90;90.90;;;;;;5009637;28;20088;-89
2023/08/26 12:02:49;;;;;;;3.55;1.67;;;19.90;90.90;;;;;;4991016;28;20085;-89
2023/08/26 12:05:16;;;;;;;2.03;1.60;;;19.80;90.60;;;;;;4976777;28;20090;-91
2023/08/26 12:07:46;;;;;;;2.22;1.58;;;19.60;90.20;;;;;;4977346;28;20038;-91
2023/08/26 12:10:13;;;;;;;1.92;1.50;;;19.40;90.30;;;;;;4983548;28;20023;-90
2023/08/26 12:12:40;;;;;;;1.63;1.48;;;19.30;90.50;;;;;;4993329;28;20034;-91
2023/08/26 12:15:08;;;;;;;4.22;1.70;;;19.20;90.70;;;;;;4992707;28;20055;-90
2023/08/26 12:17:55;;;;;;;2.58;1.55;;;19.20;91.00;;;;;;4992629;28;20093;-92
2023/08/26 12:20:24;;;;;;;3.20;1.60;;;19.10;91.40;;;;;;4994970;28;20117;-91
2023/08/26 12:22:55;;;;;;;1.98;1.25;;;19.10;91.40;;;;;;4995083;28;20023;-90
2023/08/26 12:25:25;;;;;;;1.73;1.40;;;19.10;91.50;;;;;;4995095;28;20484;-91
2023/08/26 12:28:10;;;;;;;2.73;1.33;;;19.20;91.30;;;;;;4992681;28;20031;-90
2023/08/26 12:30:37;;;;;;;3.90;1.55;;;19.40;91.20;;;;;;4997423;28;20034;-92
2023/08/26 12:33:07;;;;;;;1.42;1.30;;;19.60;91.20;;;;;;4975133;28;20449;-90
2023/08/26 12:35:37;;;;;;;2.35;1.48;;;19.90;90.70;;;;;;4984221;28;20026;-91
2023/08/26 12:38:04;;;;;;;2.95;1.27;;;20.00;89.90;;;;;;4992236;28;20049;-91
2023/08/26 12:40:31;;;;;;;1.60;1.30;;;20.10;88.40;;;;;;4999282;28;20479;-90
2023/08/26 12:42:58;;;;;;;1.77;1.45;;;20.20;87.50;;;;;;5003026;28;20042;-91
2023/08/26 12:45:24;;;;;;;2.67;1.48;;;20.20;86.70;;;;;;4992894;28;20503;-89